Hub


Voltar

 INFORMAÇÕES METEOROLÓGICAS

METAR FOR KT82


ADDS - METARS form results

(0319 UTC 20 April 2019)
Data provider http://aviationweather.gov/metar/data/
 
METAR text: KT82 200255Z AUTO 00000KT 10SM CLR 14/05 A3011 RMK AO2 T01400049
Conditions at: KT82 (FREDERICKSBURG , TX, US) observed 0255 UTC 20 April 2019
Temperature: 14.0°C (57°F)
Dewpoint: 4.9°C (41°F) [RH = 54%]
Pressure (altimeter): 30.11 inches Hg (1019.7 mb)
Winds: calm
Visibility: 10 or more miles (16+ km)
Ceiling: at least 12,000 feet AGL
Clouds: sky clear below 12,000 feet AGL
Weather: automated observation with no human augmentation;
there may or may not be significant weather present at this time

METAR text: KT82 200235Z AUTO 00000KT 10SM CLR 13/06 A3011 RMK AO2 T01250061
Conditions at: KT82 (FREDERICKSBURG , TX, US) observed 0235 UTC 20 April 2019
Temperature: 12.5°C (54°F)
Dewpoint: 6.1°C (43°F) [RH = 65%]
Pressure (altimeter): 30.11 inches Hg (1019.7 mb)
Winds: calm
Visibility: 10 or more miles (16+ km)
Ceiling: at least 12,000 feet AGL
Clouds: sky clear below 12,000 feet AGL
Weather: automated observation with no human augmentation;
there may or may not be significant weather present at this time


 MAPA DO AEROPORTO


 INFORMAÇÕES DA PISTA

Pista 14 Tamanho da pista 5002 ft Largura da pista 75 ft
Elevação da pista 1695 ft Ranhura da pista 0 ft Proa da pista 147
Pista 32 Tamanho da pista 5002 ft Largura da pista 75 ft
Elevação da pista 1677 ft Ranhura da pista 0 ft Proa da pista 327

 FREQUÊNCIAS DO AEROPORTO

Tipo A/D Nome HOUSTON CN Frequência 134.2 MHZ
Tipo AWOS Nome AWOS 3 Frequência 120 MHZ
Tipo UNIC Nome CTAF/UNICO Frequência 122.7 MHZ

 AUXÍLIOS DE NAVEGAÇÃO PRÓXIMOS AO AEROPORTO